Time;durP1;ratioP1;P1;durP2;ratioP2;P2;SDS_P1;SDS_P2;PMS_P1;PMS_P2;Temp;Humidity;BMP_temperature;BMP_pressure;BME280_temperature;BME280_humidity;BME280_pressure;Samples;Min_cycle;Max_cycle;Signal;HPM_P1;HPM_P2
2023/08/06 00:00:13;;;;;;;7.13;2.22;;;13.10;99.90;;;;;;5056905;28;20059;-84
2023/08/06 00:02:41;;;;;;;6.00;2.13;;;13.10;99.90;;;;;;5048984;28;20040;-83
2023/08/06 00:05:08;;;;;;;5.72;2.20;;;13.10;99.90;;;;;;5057732;28;20075;-84
2023/08/06 00:10:23;;;;;;;7.63;1.77;;;13.10;99.90;;;;;;5075184;28;20083;-85
2023/08/06 00:12:49;;;;;;;4.88;1.73;;;13.10;99.90;;;;;;5074346;28;20132;-84
2023/08/06 00:15:16;;;;;;;5.20;1.83;;;13.10;99.90;;;;;;5057610;28;20127;-86
2023/08/06 00:17:43;;;;;;;6.45;1.70;;;13.00;99.90;;;;;;5075111;28;20040;-84
2023/08/06 00:20:10;;;;;;;5.57;1.77;;;13.00;99.90;;;;;;5069371;28;20099;-84
2023/08/06 00:22:37;;;;;;;6.82;1.90;;;13.10;99.90;;;;;;5041341;28;20390;-85
2023/08/06 00:25:03;;;;;;;4.85;1.50;;;13.00;99.90;;;;;;5056372;28;20049;-86
2023/08/06 00:27:32;;;;;;;6.35;1.88;;;13.00;99.90;;;;;;5073840;28;20041;-85
2023/08/06 00:29:59;;;;;;;5.72;1.77;;;13.00;99.90;;;;;;5063854;28;20067;-83
2023/08/06 00:32:26;;;;;;;8.43;2.10;;;13.00;99.90;;;;;;5053897;28;20045;-85
2023/08/06 00:34:53;;;;;;;9.27;1.90;;;13.00;99.90;;;;;;5057689;28;20115;-85
2023/08/06 00:40:05;;;;;;;4.78;1.73;;;13.00;99.90;;;;;;5056183;28;20482;-83
2023/08/06 00:42:32;;;;;;;5.55;1.70;;;13.00;99.90;;;;;;5074729;28;20471;-83
2023/08/06 00:44:58;;;;;;;4.05;1.50;;;13.00;99.90;;;;;;5074462;28;20044;-84
2023/08/06 00:47:25;;;;;;;6.30;1.67;;;13.00;99.90;;;;;;5073735;28;20041;-86
2023/08/06 00:49:53;;;;;;;5.72;1.90;;;13.00;99.90;;;;;;5067547;28;20509;-84
2023/08/06 00:52:20;;;;;;;4.70;1.70;;;13.00;99.90;;;;;;5066817;28;20094;-84
2023/08/06 00:54:46;;;;;;;6.47;1.80;;;13.10;99.90;;;;;;5056864;28;20546;-83
2023/08/06 01:00:00;;;;;;;9.30;1.70;;;13.00;99.90;;;;;;5056244;28;20127;-83
2023/08/06 01:02:27;;;;;;;6.60;1.67;;;13.00;99.90;;;;;;5056166;28;20045;-85
2023/08/06 01:04:54;;;;;;;7.43;1.58;;;13.00;99.90;;;;;;5074517;28;20049;-85
2023/08/06 01:10:06;;;;;;;7.10;1.73;;;12.90;99.90;;;;;;5073659;28;20072;-85
2023/08/06 01:12:33;;;;;;;7.88;2.00;;;12.80;99.90;;;;;;5073904;28;20128;-84
2023/08/06 01:15:00;;;;;;;4.25;1.67;;;12.80;99.90;;;;;;5056524;28;20463;-83
2023/08/06 01:17:28;;;;;;;6.75;2.10;;;12.80;99.90;;;;;;5074215;28;20502;-84
2023/08/06 01:19:55;;;;;;;6.93;1.90;;;12.80;99.90;;;;;;5039661;28;20040;-84
2023/08/06 01:22:21;;;;;;;8.98;2.17;;;12.80;99.90;;;;;;5037499;28;20450;-83
2023/08/06 01:24:48;;;;;;;4.90;1.90;;;12.70;99.90;;;;;;5047080;28;20117;-85
2023/08/06 01:29:46;;;;;;;5.47;1.83;;;12.70;99.90;;;;;;5074172;28;20083;-84
2023/08/06 01:32:13;;;;;;;8.07;2.15;;;12.60;99.90;;;;;;5039536;28;20040;-84
2023/08/06 01:34:40;;;;;;;6.05;2.30;;;12.60;99.90;;;;;;5056738;28;20082;-86
2023/08/06 01:39:52;;;;;;;6.53;2.10;;;12.60;99.90;;;;;;5061596;28;20045;-83
2023/08/06 01:42:19;;;;;;;8.75;2.45;;;12.60;99.90;;;;;;5056957;28;20098;-85
2023/08/06 01:44:46;;;;;;;5.65;2.05;;;12.60;99.90;;;;;;5040100;28;20040;-85
2023/08/06 01:47:13;;;;;;;7.43;2.00;;;12.60;99.90;;;;;;5055960;28;20451;-84
2023/08/06 01:49:40;;;;;;;6.20;1.90;;;12.50;99.90;;;;;;5056238;28;20090;-85
2023/08/06 01:52:06;;;;;;;8.63;2.10;;;12.60;99.90;;;;;;5055589;28;20051;-83
2023/08/06 01:54:33;;;;;;;5.30;2.00;;;12.60;99.90;;;;;;5074065;28;20037;-83
2023/08/06 01:59:46;;;;;;;6.35;2.13;;;12.50;99.90;;;;;;5055769;28;20040;-83
2023/08/06 02:02:13;;;;;;;9.27;2.10;;;12.50;99.90;;;;;;5056318;28;20102;-82
2023/08/06 02:04:40;;;;;;;8.23;2.40;;;12.50;99.90;;;;;;5056679;28;20044;-84
2023/08/06 02:09:53;;;;;;;5.43;2.10;;;12.50;99.90;;;;;;5052586;28;20045;-83
2023/08/06 02:12:19;;;;;;;5.57;2.15;;;12.50;99.90;;;;;;5028628;28;20489;-82
2023/08/06 02:14:46;;;;;;;14.82;2.58;;;12.50;99.90;;;;;;5059068;28;20064;-83
2023/08/06 02:20:00;;;;;;;6.82;2.30;;;12.50;99.90;;;;;;5076462;28;20041;-85
2023/08/06 02:22:27;;;;;;;10.10;2.30;;;12.50;99.90;;;;;;5060238;28;20123;-82
2023/08/06 02:24:54;;;;;;;10.25;2.33;;;12.50;99.90;;;;;;5059759;28;20078;-83
2023/08/06 02:30:07;;;;;;;7.70;2.58;;;12.50;99.90;;;;;;5077091;28;20063;-85
2023/08/06 02:32:35;;;;;;;8.40;2.63;;;12.40;99.90;;;;;;5037944;28;20071;-82
2023/08/06 02:35:02;;;;;;;8.40;2.05;;;12.40;99.90;;;;;;5050123;28;20098;-82
2023/08/06 02:40:16;;;;;;;7.13;2.30;;;12.30;99.90;;;;;;5076016;28;20036;-83
2023/08/06 02:42:43;;;;;;;7.95;1.95;;;12.30;99.90;;;;;;5041662;28;20044;-85
2023/08/06 02:45:10;;;;;;;6.25;2.10;;;12.20;99.90;;;;;;5049295;28;20083;-83
2023/08/06 02:50:22;;;;;;;9.40;2.47;;;12.10;99.90;;;;;;5058915;28;20049;-85
2023/08/06 02:52:49;;;;;;;10.60;2.53;;;12.00;99.90;;;;;;5058282;28;20106;-84
2023/08/06 02:55:15;;;;;;;7.53;2.30;;;12.00;99.90;;;;;;5058974;28;20075;-84
2023/08/06 02:57:46;;;;;;;7.88;1.90;;;12.00;99.90;;;;;;5043008;28;20087;-82
2023/08/06 03:00:13;;;;;;;8.40;1.88;;;12.00;99.90;;;;;;5058105;28;20074;-86
2023/08/06 03:02:40;;;;;;;7.40;2.67;;;11.90;99.90;;;;;;5042525;28;20047;-84
2023/08/06 03:05:21;;;;;;;10.85;2.08;;;11.90;99.90;;;;;;5058891;28;20102;-83
2023/08/06 03:07:50;;;;;;;8.07;2.08;;;11.90;99.90;;;;;;5058773;28;20391;-84
2023/08/06 03:10:24;;;;;;;7.47;2.05;;;11.90;99.90;;;;;;5058753;28;20374;-85
2023/08/06 03:12:54;;;;;;;8.98;2.15;;;11.80;99.90;;;;;;5048095;28;20057;-85
2023/08/06 03:15:22;;;;;;;5.32;1.98;;;11.80;99.90;;;;;;5055401;28;20075;-82
2023/08/06 03:17:50;;;;;;;5.55;2.20;;;11.80;99.90;;;;;;5058622;28;20485;-85
2023/08/06 03:20:20;;;;;;;8.38;2.40;;;11.80;99.90;;;;;;5057591;28;20457;-82
2023/08/06 03:22:47;;;;;;;7.05;2.10;;;11.80;99.90;;;;;;5076137;28;20106;-85
2023/08/06 03:25:14;;;;;;;8.45;2.08;;;11.80;99.90;;;;;;5057112;28;20040;-86
2023/08/06 03:27:46;;;;;;;4.90;1.90;;;11.70;99.90;;;;;;5029082;28;20048;-85
2023/08/06 03:30:14;;;;;;;6.03;1.95;;;11.70;99.90;;;;;;5051384;28;20041;-85
2023/08/06 03:32:41;;;;;;;7.03;2.05;;;11.70;99.90;;;;;;5057620;28;20048;-85
2023/08/06 03:35:08;;;;;;;7.75;2.10;;;11.70;99.90;;;;;;5076017;28;20040;-82
2023/08/06 03:40:21;;;;;;;13.95;2.30;;;11.60;99.90;;;;;;5057143;28;20160;-84
2023/08/06 03:42:48;;;;;;;6.10;2.30;;;11.60;99.90;;;;;;5039755;28;20041;-86
2023/08/06 03:45:15;;;;;;;7.80;2.20;;;11.50;99.90;;;;;;5065879;28;20076;-83
2023/08/06 03:47:43;;;;;;;5.43;1.98;;;11.50;99.90;;;;;;5040937;28;20123;-84
2023/08/06 03:50:12;;;;;;;6.95;2.20;;;11.50;99.90;;;;;;5057879;28;20102;-86
2023/08/06 03:52:39;;;;;;;6.47;2.45;;;11.50;99.90;;;;;;5074743;28;20463;-84
2023/08/06 03:55:06;;;;;;;6.85;2.00;;;11.50;99.90;;;;;;5075617;28;20099;-84
2023/08/06 03:57:34;;;;;;;6.75;2.15;;;11.50;99.90;;;;;;5058317;28;20044;-85
2023/08/06 04:00:01;;;;;;;6.63;2.10;;;11.50;99.90;;;;;;5043658;28;20143;-82
2023/08/06 04:02:28;;;;;;;6.85;1.90;;;11.50;99.90;;;;;;5058418;28;20047;-82
2023/08/06 04:04:55;;;;;;;10.50;2.30;;;11.50;99.90;;;;;;5041715;28;20036;-83
2023/08/06 04:07:22;;;;;;;7.47;2.33;;;11.50;99.90;;;;;;5056913;28;20156;-84
2023/08/06 04:09:49;;;;;;;8.52;2.63;;;11.50;99.90;;;;;;5054484;28;20156;-82
2023/08/06 04:12:15;;;;;;;7.13;2.25;;;11.50;99.90;;;;;;5063834;28;20040;-82
2023/08/06 04:14:42;;;;;;;6.68;1.80;;;11.40;99.90;;;;;;5041113;28;20044;-85
2023/08/06 04:17:10;;;;;;;10.23;2.30;;;11.40;99.90;;;;;;5074950;28;20103;-85
2023/08/06 04:19:36;;;;;;;6.82;2.38;;;11.40;99.90;;;;;;5056650;28;20134;-85
2023/08/06 04:22:03;;;;;;;9.40;2.55;;;11.40;99.90;;;;;;5057668;28;20106;-82
2023/08/06 04:24:30;;;;;;;13.77;2.47;;;11.40;99.90;;;;;;5057336;28;20553;-83
2023/08/06 04:26:57;;;;;;;5.72;1.88;;;11.40;99.90;;;;;;5040142;28;20044;-85
2023/08/06 04:29:24;;;;;;;6.35;1.80;;;11.30;99.90;;;;;;5057444;28;20047;-83
2023/08/06 04:31:52;;;;;;;6.35;1.88;;;11.30;99.90;;;;;;5057284;28;20075;-83
2023/08/06 04:34:19;;;;;;;6.25;2.05;;;11.30;99.90;;;;;;5056648;28;20379;-85
2023/08/06 04:36:47;;;;;;;6.05;2.10;;;11.30;99.90;;;;;;5057501;28;20461;-82
2023/08/06 04:39:14;;;;;;;4.45;1.60;;;11.30;99.90;;;;;;5056102;28;20055;-84
2023/08/06 04:41:40;;;;;;;11.40;2.45;;;11.20;99.90;;;;;;5075109;28;20040;-83
2023/08/06 04:44:07;;;;;;;5.55;2.22;;;11.20;99.90;;;;;;5057113;28;20072;-86
2023/08/06 04:46:34;;;;;;;8.40;2.42;;;11.20;99.90;;;;;;5056103;28;20463;-86
2023/08/06 04:49:01;;;;;;;9.02;2.00;;;11.20;99.90;;;;;;5057285;28;20525;-82
2023/08/06 04:51:27;;;;;;;8.75;2.05;;;11.20;99.90;;;;;;5056978;28;20425;-82
2023/08/06 04:53:54;;;;;;;8.93;2.13;;;11.20;99.90;;;;;;5073862;28;20499;-83
2023/08/06 04:56:23;;;;;;;7.60;2.15;;;11.20;99.90;;;;;;5039317;28;20053;-82
2023/08/06 04:58:50;;;;;;;5.43;2.03;;;11.20;99.90;;;;;;5052464;28;20056;-83
2023/08/06 05:01:16;;;;;;;10.20;2.35;;;11.20;99.90;;;;;;5056519;28;20046;-84
2023/08/06 05:03:43;;;;;;;6.70;2.40;;;11.20;99.90;;;;;;5056804;28;20032;-84
2023/08/06 05:06:12;;;;;;;9.32;2.05;;;11.20;99.90;;;;;;5056184;28;20040;-83
2023/08/06 05:08:38;;;;;;;8.05;2.42;;;11.30;99.90;;;;;;5056774;28;20055;-85
2023/08/06 05:11:05;;;;;;;13.15;2.30;;;11.30;99.90;;;;;;5056934;28;20049;-83
2023/08/06 05:13:32;;;;;;;6.43;2.15;;;11.30;99.90;;;;;;5073548;28;20040;-86
2023/08/06 05:18:45;;;;;;;5.85;1.88;;;11.40;99.90;;;;;;5073359;28;20043;-85
2023/08/06 05:21:12;;;;;;;9.05;2.35;;;11.40;99.90;;;;;;5040262;28;20072;-85
2023/08/06 05:23:38;;;;;;;7.68;2.20;;;11.40;99.90;;;;;;5056741;28;20053;-84
2023/08/06 05:26:06;;;;;;;6.05;2.08;;;11.50;99.90;;;;;;5073447;28;20040;-86
2023/08/06 05:28:33;;;;;;;5.88;2.00;;;11.50;99.90;;;;;;5056481;28;20080;-84
2023/08/06 05:30:59;;;;;;;8.70;2.45;;;11.60;99.90;;;;;;5074223;28;20098;-82
2023/08/06 05:33:26;;;;;;;8.75;2.05;;;11.60;99.90;;;;;;5055995;28;20135;-87
2023/08/06 05:35:54;;;;;;;12.27;2.10;;;11.70;99.90;;;;;;5074050;28;20371;-84
2023/08/06 05:38:21;;;;;;;6.85;2.10;;;11.70;99.90;;;;;;5074034;28;20124;-82
2023/08/06 05:40:48;;;;;;;8.05;2.30;;;11.80;99.90;;;;;;5055623;28;20052;-86
2023/08/06 05:43:15;;;;;;;6.82;2.15;;;11.90;99.90;;;;;;5056807;28;20040;-83
2023/08/06 05:45:42;;;;;;;6.43;1.98;;;12.00;99.90;;;;;;5055687;28;20314;-83
2023/08/06 05:48:09;;;;;;;5.90;2.25;;;12.00;99.90;;;;;;5040539;28;20067;-87
2023/08/06 05:50:35;;;;;;;6.78;2.03;;;12.10;99.90;;;;;;5077820;28;20087;-84
2023/08/06 05:53:02;;;;;;;10.60;2.45;;;12.10;99.90;;;;;;5059421;28;20048;-82
2023/08/06 05:55:29;;;;;;;6.22;2.30;;;12.20;99.90;;;;;;5077714;28;20044;-85
2023/08/06 05:57:57;;;;;;;5.72;1.90;;;12.30;99.90;;;;;;5060175;28;20072;-85
2023/08/06 06:00:24;;;;;;;7.50;2.30;;;12.30;99.90;;;;;;5076849;28;20102;-83
2023/08/06 06:02:50;;;;;;;12.98;2.70;;;12.40;99.90;;;;;;5054069;28;20041;-84
2023/08/06 06:05:17;;;;;;;6.07;2.10;;;12.50;99.90;;;;;;5060362;28;20044;-85
2023/08/06 06:10:31;;;;;;;8.18;2.50;;;12.70;99.90;;;;;;5077397;28;20090;-85
2023/08/06 06:12:57;;;;;;;6.72;2.03;;;12.70;99.90;;;;;;5048517;28;20352;-86
2023/08/06 06:15:24;;;;;;;6.93;2.10;;;12.70;99.90;;;;;;5059538;28;20487;-84
2023/08/06 06:20:20;;;;;;;6.75;2.15;;;12.90;99.90;;;;;;5076563;28;20463;-84
2023/08/06 06:22:47;;;;;;;7.25;2.08;;;13.00;99.90;;;;;;5059985;28;20036;-83
2023/08/06 06:25:14;;;;;;;5.97;2.08;;;13.00;99.90;;;;;;5059926;28;20058;-84
2023/08/06 06:27:43;;;;;;;6.03;2.05;;;13.10;99.90;;;;;;5042518;28;20110;-84
2023/08/06 06:30:11;;;;;;;7.47;2.20;;;13.20;99.90;;;;;;5059558;28;20106;-85
2023/08/06 06:32:39;;;;;;;9.43;2.65;;;13.20;99.90;;;;;;5038942;28;20056;-86
2023/08/06 06:35:06;;;;;;;5.10;1.85;;;13.30;99.90;;;;;;5050892;28;20041;-82
2023/08/06 06:37:35;;;;;;;9.05;2.30;;;13.40;99.90;;;;;;5059216;28;20069;-85
2023/08/06 06:40:02;;;;;;;7.97;2.53;;;13.40;99.90;;;;;;5058830;28;20075;-84
2023/08/06 06:42:29;;;;;;;5.65;1.92;;;13.50;99.90;;;;;;5060003;28;20055;-86
2023/08/06 06:44:59;;;;;;;6.55;2.40;;;13.60;99.90;;;;;;5043378;28;20045;-84
2023/08/06 06:47:26;;;;;;;7.05;2.28;;;13.70;99.90;;;;;;5076220;28;20040;-86
2023/08/06 06:49:53;;;;;;;5.93;2.20;;;13.80;99.90;;;;;;5038981;28;20152;-83
2023/08/06 06:52:20;;;;;;;7.53;2.20;;;13.90;99.90;;;;;;5073312;28;20379;-86
2023/08/06 06:54:46;;;;;;;9.63;2.28;;;14.00;99.90;;;;;;5059413;28;20445;-84
2023/08/06 06:59:59;;;;;;;7.53;2.17;;;14.10;99.90;;;;;;5050805;28;20052;-84
2023/08/06 07:02:25;;;;;;;9.65;2.45;;;14.20;99.90;;;;;;5078807;28;20055;-83
2023/08/06 07:04:52;;;;;;;6.57;2.22;;;14.30;99.90;;;;;;5058547;28;20052;-83
2023/08/06 07:09:51;;;;;;;7.65;2.30;;;14.60;99.90;;;;;;5073671;28;20128;-86
2023/08/06 07:12:17;;;;;;;7.97;2.00;;;14.70;99.90;;;;;;5057517;28;20143;-83
2023/08/06 07:14:44;;;;;;;6.50;1.90;;;14.80;99.90;;;;;;5058995;28;20123;-84
2023/08/06 07:17:11;;;;;;;9.52;2.08;;;14.70;99.90;;;;;;5079858;28;20065;-85
2023/08/06 07:19:38;;;;;;;5.25;1.80;;;14.70;99.90;;;;;;5051448;28;20044;-86
2023/08/06 07:22:04;;;;;;;9.75;2.22;;;14.80;99.90;;;;;;5059105;28;20040;-86
2023/08/06 07:24:31;;;;;;;5.85;1.85;;;14.90;99.90;;;;;;5058784;28;20046;-85
2023/08/06 07:29:29;;;;;;;5.27;1.83;;;15.10;99.90;;;;;;5081671;28;20068;-85
2023/08/06 07:31:55;;;;;;;7.78;2.33;;;15.20;99.90;;;;;;5082127;28;20041;-86
2023/08/06 07:34:22;;;;;;;8.18;2.50;;;15.50;99.90;;;;;;5057918;28;20048;-84
2023/08/06 07:36:50;;;;;;;5.88;2.22;;;15.60;99.90;;;;;;5050086;28;20139;-84
2023/08/06 07:39:17;;;;;;;6.00;1.95;;;15.60;99.90;;;;;;5074854;28;20127;-87
2023/08/06 07:41:45;;;;;;;6.80;2.13;;;15.70;99.90;;;;;;5058252;28;20466;-85
2023/08/06 07:44:12;;;;;;;7.93;2.20;;;15.90;99.90;;;;;;5058187;28;20142;-85
2023/08/06 07:46:39;;;;;;;7.55;2.20;;;16.10;99.90;;;;;;5061123;28;20535;-84
2023/08/06 07:49:06;;;;;;;8.88;2.60;;;16.10;99.90;;;;;;5058234;28;20048;-83
2023/08/06 07:51:33;;;;;;;5.25;2.10;;;16.00;99.90;;;;;;5058133;28;20046;-84
2023/08/06 07:53:59;;;;;;;5.55;1.90;;;16.00;99.90;;;;;;5074939;28;20127;-82
2023/08/06 07:56:26;;;;;;;5.63;2.03;;;16.00;99.90;;;;;;5075530;28;20099;-85
2023/08/06 07:58:53;;;;;;;7.05;2.35;;;16.00;99.90;;;;;;5056864;28;20044;-83
2023/08/06 08:01:19;;;;;;;5.05;2.05;;;16.10;99.90;;;;;;5075345;28;20128;-85
2023/08/06 08:03:46;;;;;;;6.80;2.50;;;16.40;99.90;;;;;;5057947;28;20052;-87
2023/08/06 08:06:13;;;;;;;7.00;1.92;;;16.40;99.90;;;;;;5074579;28;20044;-81
2023/08/06 08:08:40;;;;;;;5.22;2.05;;;16.50;99.90;;;;;;5057545;28;20080;-86
2023/08/06 08:11:06;;;;;;;7.68;2.40;;;16.50;99.90;;;;;;5065787;28;20132;-85
2023/08/06 08:13:36;;;;;;;7.03;2.03;;;16.60;99.90;;;;;;5074098;28;20048;-86
2023/08/06 08:16:05;;;;;;;7.72;2.10;;;16.70;99.90;;;;;;5075073;28;20068;-84
2023/08/06 08:18:32;;;;;;;6.28;1.90;;;16.90;99.90;;;;;;5057615;28;20033;-83
2023/08/06 08:20:58;;;;;;;5.88;2.15;;;17.10;99.90;;;;;;5073766;28;20046;-82
2023/08/06 08:23:25;;;;;;;5.57;2.00;;;17.10;99.90;;;;;;5074840;28;20490;-83
2023/08/06 08:25:52;;;;;;;6.47;2.10;;;17.20;99.90;;;;;;5073798;28;20119;-83
2023/08/06 08:28:19;;;;;;;5.43;1.80;;;17.20;99.90;;;;;;5075079;28;20238;-85
2023/08/06 08:30:45;;;;;;;7.93;2.38;;;17.20;99.90;;;;;;5057488;28;20076;-83
2023/08/06 08:33:12;;;;;;;7.25;1.90;;;17.10;99.90;;;;;;5074109;28;20048;-84
2023/08/06 08:35:40;;;;;;;4.90;1.70;;;17.10;99.90;;;;;;5074851;28;20065;-82
2023/08/06 08:38:08;;;;;;;6.78;1.83;;;17.00;99.90;;;;;;5074803;28;20044;-84
2023/08/06 08:40:34;;;;;;;5.45;2.00;;;17.00;99.90;;;;;;5074153;28;20037;-87
2023/08/06 08:43:01;;;;;;;5.85;1.90;;;17.20;99.90;;;;;;5075237;28;20483;-85
2023/08/06 08:45:28;;;;;;;8.02;2.33;;;17.30;99.90;;;;;;5074059;28;20067;-85
2023/08/06 08:47:54;;;;;;;4.65;1.80;;;17.50;99.90;;;;;;5057664;28;20072;-86
2023/08/06 08:50:21;;;;;;;7.57;1.95;;;17.60;99.90;;;;;;5074843;28;20059;-84
2023/08/06 08:52:48;;;;;;;5.82;1.95;;;17.70;99.90;;;;;;5074016;28;20144;-83
2023/08/06 08:55:15;;;;;;;4.65;1.70;;;17.60;99.90;;;;;;5074680;28;20040;-84
2023/08/06 08:57:43;;;;;;;7.35;1.95;;;17.60;99.90;;;;;;5057136;28;20044;-83
2023/08/06 09:00:10;;;;;;;5.47;1.90;;;17.70;99.90;;;;;;5073775;28;20424;-82
2023/08/06 09:02:36;;;;;;;7.63;1.80;;;18.00;99.90;;;;;;5075251;28;20110;-85
2023/08/06 09:05:04;;;;;;;6.10;2.00;;;18.30;99.90;;;;;;5057042;28;20036;-83
2023/08/06 09:07:33;;;;;;;7.88;1.90;;;18.50;99.90;;;;;;5055856;28;20463;-81
2023/08/06 09:09:59;;;;;;;4.97;1.52;;;18.50;99.90;;;;;;5056763;28;20106;-84
2023/08/06 09:12:26;;;;;;;6.40;1.73;;;18.20;99.90;;;;;;5073643;28;20040;-86
2023/08/06 09:14:52;;;;;;;5.05;1.92;;;17.90;99.90;;;;;;5056632;28;20139;-84
2023/08/06 09:17:21;;;;;;;5.45;1.92;;;18.00;99.90;;;;;;5074404;28;20394;-84
2023/08/06 09:19:49;;;;;;;5.43;1.95;;;18.20;99.90;;;;;;5062126;28;20060;-79
2023/08/06 09:22:16;;;;;;;6.80;2.10;;;18.30;99.90;;;;;;5054126;28;20056;-85
2023/08/06 09:24:43;;;;;;;5.82;1.73;;;18.30;99.90;;;;;;5059921;28;20036;-82
2023/08/06 09:29:40;;;;;;;4.77;1.57;;;18.50;99.90;;;;;;5078447;28;20076;-84
2023/08/06 09:32:07;;;;;;;4.63;1.60;;;18.50;99.90;;;;;;5077330;28;20041;-83
2023/08/06 09:34:33;;;;;;;7.18;2.03;;;18.60;99.90;;;;;;5060813;28;20052;-85
2023/08/06 09:37:00;;;;;;;6.60;1.80;;;18.80;99.90;;;;;;5060920;28;20042;-85
2023/08/06 09:39:27;;;;;;;5.25;1.80;;;18.70;99.90;;;;;;5077619;28;20045;-83
2023/08/06 09:41:53;;;;;;;5.75;1.73;;;19.00;99.90;;;;;;5078253;28;20119;-82
2023/08/06 09:44:22;;;;;;;6.18;1.55;;;19.30;99.90;;;;;;5061277;28;20075;-80
2023/08/06 09:46:49;;;;;;;8.65;1.80;;;19.70;99.90;;;;;;5077421;28;20079;-81
2023/08/06 09:49:15;;;;;;;6.10;1.85;;;20.00;99.90;;;;;;5060161;28;20102;-84
2023/08/06 09:51:43;;;;;;;5.60;1.70;;;20.30;99.90;;;;;;5083551;28;20538;-85
2023/08/06 09:54:12;;;;;;;5.10;1.80;;;20.40;99.90;;;;;;5060051;28;20103;-82
2023/08/06 09:56:54;;;;;;;4.90;1.58;;;20.00;99.90;;;;;;5078534;28;20466;-83
2023/08/06 09:59:22;;;;;;;5.47;1.80;;;19.80;99.90;;;;;;5076607;28;20120;-82
2023/08/06 10:01:48;;;;;;;7.47;1.90;;;19.80;99.90;;;;;;5077802;28;20068;-82
2023/08/06 10:04:18;;;;;;;4.32;1.60;;;20.10;99.90;;;;;;5078079;28;20363;-82
2023/08/06 10:06:51;;;;;;;5.95;1.70;;;20.20;99.90;;;;;;5063557;28;20040;-82
2023/08/06 10:09:19;;;;;;;4.85;1.52;;;20.40;99.90;;;;;;5060016;28;20099;-83
2023/08/06 10:11:47;;;;;;;5.25;1.40;;;20.30;99.90;;;;;;5059959;28;20059;-84
2023/08/06 10:14:14;;;;;;;6.57;2.00;;;20.50;99.90;;;;;;5076684;28;20036;-83
2023/08/06 10:16:41;;;;;;;5.97;1.70;;;20.70;99.90;;;;;;5077770;28;20110;-83
2023/08/06 10:19:08;;;;;;;6.13;1.63;;;20.80;99.90;;;;;;5076568;28;20064;-81
2023/08/06 10:21:34;;;;;;;6.38;2.00;;;20.80;99.90;;;;;;5060266;28;20135;-81
2023/08/06 10:24:04;;;;;;;5.43;1.63;;;20.60;99.90;;;;;;5077770;28;20132;-84
2023/08/06 10:26:31;;;;;;;4.57;1.70;;;20.80;99.90;;;;;;5058985;28;20076;-85
2023/08/06 10:28:58;;;;;;;5.03;1.70;;;20.90;99.90;;;;;;5077105;28;20045;-83
2023/08/06 10:31:24;;;;;;;8.60;2.05;;;21.00;99.90;;;;;;5059926;28;20045;-83
2023/08/06 10:33:51;;;;;;;5.07;1.75;;;20.80;99.90;;;;;;5076253;28;20051;-84
2023/08/06 10:36:19;;;;;;;4.15;1.60;;;20.60;99.90;;;;;;5077578;28;20131;-85
2023/08/06 10:38:45;;;;;;;4.53;1.83;;;20.70;99.90;;;;;;5058416;28;20071;-86
2023/08/06 10:41:12;;;;;;;5.20;1.80;;;20.80;99.90;;;;;;5075238;28;20043;-84
2023/08/06 10:43:39;;;;;;;6.50;1.70;;;21.00;99.90;;;;;;5076869;28;20039;-84
2023/08/06 10:46:07;;;;;;;5.88;1.98;;;20.70;99.90;;;;;;5075852;28;20131;-84
2023/08/06 10:48:34;;;;;;;5.75;1.67;;;20.50;99.90;;;;;;5060059;28;20047;-85
2023/08/06 10:51:01;;;;;;;7.05;2.00;;;20.30;99.90;;;;;;5059414;28;20132;-86
2023/08/06 10:53:28;;;;;;;5.10;1.80;;;20.00;99.90;;;;;;5058445;28;20045;-85
2023/08/06 10:56:01;;;;;;;5.03;1.80;;;19.80;99.90;;;;;;5076894;28;20047;-86
2023/08/06 10:58:28;;;;;;;4.43;1.77;;;19.90;99.90;;;;;;5059054;28;20033;-88
2023/08/06 11:00:55;;;;;;;5.80;1.80;;;20.00;99.90;;;;;;5058309;28;20052;-86
2023/08/06 11:03:22;;;;;;;6.38;1.70;;;20.00;99.90;;;;;;5076648;28;20045;-88
2023/08/06 11:05:50;;;;;;;5.82;1.73;;;19.90;99.90;;;;;;5075808;28;20040;-86
2023/08/06 11:08:17;;;;;;;5.63;1.90;;;19.70;99.90;;;;;;5058916;28;20102;-86
2023/08/06 11:10:44;;;;;;;4.72;1.58;;;19.60;99.90;;;;;;5076798;28;20068;-84
2023/08/06 11:13:25;;;;;;;5.90;1.88;;;19.50;99.90;;;;;;5076029;28;20044;-83
2023/08/06 11:15:52;;;;;;;5.22;1.73;;;19.50;99.90;;;;;;5058886;28;20050;-86
2023/08/06 11:18:18;;;;;;;6.82;1.63;;;19.80;99.90;;;;;;5042201;28;20062;-86
2023/08/06 11:20:45;;;;;;;4.55;1.63;;;19.80;99.90;;;;;;5058197;28;20105;-85
2023/08/06 11:23:12;;;;;;;5.82;2.03;;;19.60;99.90;;;;;;5042373;28;20090;-85
2023/08/06 11:25:39;;;;;;;5.45;1.95;;;19.30;99.90;;;;;;5058228;28;20044;-82
2023/08/06 11:28:06;;;;;;;4.85;1.88;;;18.80;99.90;;;;;;5058650;28;20037;-86
2023/08/06 11:30:33;;;;;;;6.57;1.88;;;18.60;99.90;;;;;;5076099;28;20123;-82
2023/08/06 11:33:00;;;;;;;8.93;2.20;;;18.40;99.90;;;;;;5075593;28;20447;-84
2023/08/06 11:35:27;;;;;;;6.47;2.00;;;18.30;99.90;;;;;;5058667;28;20048;-85
2023/08/06 11:37:54;;;;;;;5.32;2.03;;;18.30;99.90;;;;;;5038589;28;20131;-83
2023/08/06 11:40:20;;;;;;;5.63;2.00;;;18.50;99.90;;;;;;5067581;28;20044;-83
2023/08/06 11:42:47;;;;;;;7.47;2.15;;;18.70;99.90;;;;;;5058271;28;20057;-83
2023/08/06 11:45:14;;;;;;;6.65;2.28;;;18.90;99.90;;;;;;5058187;28;20053;-84
2023/08/06 11:47:41;;;;;;;5.60;2.13;;;19.20;99.90;;;;;;5082177;28;20497;-86
2023/08/06 11:50:08;;;;;;;6.63;2.10;;;19.40;99.90;;;;;;5058673;28;20062;-86
2023/08/06 11:52:35;;;;;;;8.15;2.28;;;19.60;99.90;;;;;;5074905;28;20044;-83
2023/08/06 11:55:10;;;;;;;7.00;2.25;;;19.60;99.90;;;;;;5058315;28;20101;-86
2023/08/06 11:57:37;;;;;;;7.20;2.33;;;20.10;99.90;;;;;;5058259;28;20340;-86
2023/08/06 12:00:04;;;;;;;5.90;1.95;;;21.20;99.90;;;;;;5074649;28;20044;-85
2023/08/06 12:02:38;;;;;;;5.05;1.75;;;21.50;99.90;;;;;;5075565;28;20044;-86
2023/08/06 12:05:04;;;;;;;5.85;2.40;;;21.90;99.90;;;;;;5051852;28;20043;-84
2023/08/06 12:07:31;;;;;;;5.75;1.90;;;22.30;99.90;;;;;;5057510;28;20076;-85
2023/08/06 12:09:58;;;;;;;5.85;2.10;;;22.10;99.90;;;;;;5058234;28;20048;-87
2023/08/06 12:12:25;;;;;;;6.25;2.17;;;22.30;99.90;;;;;;5050705;28;20110;-87
2023/08/06 12:14:51;;;;;;;5.03;2.00;;;22.70;99.90;;;;;;5060454;28;20072;-84
2023/08/06 12:20:22;;;;;;;6.05;1.77;;;23.10;99.90;;;;;;5056526;28;20029;-83
2023/08/06 12:22:49;;;;;;;5.30;1.90;;;23.20;99.90;;;;;;5057720;28;20124;-85
2023/08/06 12:25:16;;;;;;;5.70;2.10;;;23.70;99.90;;;;;;5057507;28;20129;-85
2023/08/06 12:27:43;;;;;;;9.10;1.77;;;23.80;99.90;;;;;;5039866;28;20078;-83
2023/08/06 12:30:10;;;;;;;5.88;2.10;;;23.60;99.90;;;;;;5057479;28;20089;-83
2023/08/06 12:32:37;;;;;;;4.97;1.70;;;23.00;99.90;;;;;;5074042;28;20115;-85
2023/08/06 12:35:04;;;;;;;4.60;2.00;;;22.60;99.90;;;;;;5057650;28;20056;-83
2023/08/06 12:37:32;;;;;;;4.40;1.70;;;22.00;99.90;;;;;;5057169;28;20044;-82
2023/08/06 12:39:59;;;;;;;3.97;1.45;;;21.50;99.90;;;;;;5068571;28;20037;-83
2023/08/06 12:42:45;;;;;;;6.03;1.70;;;21.30;99.90;;;;;;5074657;28;20032;-85
2023/08/06 12:45:12;;;;;;;5.57;1.85;;;21.40;99.90;;;;;;5057227;28;20468;-86
2023/08/06 12:50:24;;;;;;;4.75;1.70;;;21.40;99.90;;;;;;5056944;28;20423;-83
2023/08/06 12:52:51;;;;;;;4.90;1.95;;;21.90;99.90;;;;;;5073702;28;20068;-83
2023/08/06 12:55:18;;;;;;;4.63;1.67;;;22.30;99.90;;;;;;5056987;28;20048;-83
2023/08/06 13:00:24;;;;;;;4.43;1.80;;;22.70;99.90;;;;;;5056249;28;20075;-84
2023/08/06 13:02:51;;;;;;;5.13;1.80;;;22.80;99.90;;;;;;5056889;28;20040;-83
2023/08/06 13:05:18;;;;;;;4.78;1.90;;;22.70;99.90;;;;;;5056998;28;20102;-82
2023/08/06 13:10:31;;;;;;;4.75;1.65;;;22.00;99.90;;;;;;5074704;28;20133;-83
2023/08/06 13:12:58;;;;;;;5.32;1.80;;;21.40;99.90;;;;;;5055918;28;20238;-84
2023/08/06 13:15:25;;;;;;;10.57;1.95;;;21.70;99.90;;;;;;5056927;28;20097;-85
2023/08/06 13:20:37;;;;;;;4.70;1.70;;;21.20;99.90;;;;;;5069417;28;20037;-84
2023/08/06 13:23:04;;;;;;;6.60;1.80;;;20.90;99.90;;;;;;5047032;28;20062;-86
2023/08/06 13:25:34;;;;;;;6.20;1.77;;;20.90;99.90;;;;;;5055494;28;20040;-84
2023/08/06 13:28:01;;;;;;;4.22;1.50;;;20.60;99.90;;;;;;5056902;28;20129;-83
2023/08/06 13:30:28;;;;;;;4.88;1.70;;;20.40;99.90;;;;;;5056998;28;20127;-86
2023/08/06 13:32:56;;;;;;;6.20;2.10;;;20.00;99.90;;;;;;5055788;28;20040;-86
2023/08/06 13:35:23;;;;;;;5.75;1.80;;;19.70;99.90;;;;;;5074216;28;20094;-84
2023/08/06 13:37:51;;;;;;;10.25;2.60;;;19.20;99.90;;;;;;5056634;28;20052;-82
2023/08/06 13:40:17;;;;;;;6.53;2.50;;;18.60;99.90;;;;;;5055727;28;20151;-83
2023/08/06 13:42:44;;;;;;;7.15;2.72;;;18.30;99.90;;;;;;5074191;28;20044;-84
2023/08/06 13:45:11;;;;;;;5.38;2.17;;;18.50;99.90;;;;;;5056795;28;20055;-86
2023/08/06 13:47:37;;;;;;;5.70;2.30;;;18.60;99.90;;;;;;5055644;28;20076;-83
2023/08/06 13:50:04;;;;;;;4.30;1.52;;;18.80;99.90;;;;;;5056631;28;20056;-86
2023/08/06 13:52:31;;;;;;;5.55;1.98;;;19.10;99.90;;;;;;5036541;28;20079;-83